Wetterstation Vordersexau
Wetterdaten: Woche 04.07.11 - 10.07.11 (KW27)
Datum Zeit Temp. A. Feuchte A. Luftdruck Regen Wind Richtung Taupunkt Windchill Windben
04.07.2011 00:00 11,4 C 74 % 1012,9 hPa 0,0 l/m 0,0 km/h NO 6,9 C 11,4 C 0,0 km/h
04.07.2011 01:00 11,3 C 75 % 1012,8 hPa 0,0 l/m 0,0 km/h O-NO 7,0 C 11,3 C 0,0 km/h
04.07.2011 02:00 10,2 C 78 % 1012,7 hPa 0,0 l/m 0,0 km/h O-NO 6,5 C 10,2 C 0,0 km/h
04.07.2011 03:00 8,8 C 81 % 1012,5 hPa 0,0 l/m 0,0 km/h O-NO 5,7 C 8,8 C 0,0 km/h
04.07.2011 04:00 8,1 C 83 % 1012,7 hPa 0,0 l/m 0,0 km/h O-NO 5,4 C 8,1 C 0,0 km/h
04.07.2011 05:00 7,7 C 85 % 1012,8 hPa 0,0 l/m 0,0 km/h O 5,3 C 7,7 C 0,0 km/h
04.07.2011 06:00 8,0 C 86 % 1012,9 hPa 0,0 l/m 0,0 km/h NO 5,8 C 8,0 C 0,0 km/h
04.07.2011 07:00 11,0 C 84 % 1013,2 hPa 0,0 l/m 0,0 km/h W 8,4 C 11,0 C 0,0 km/h
04.07.2011 08:00 23,0 C 54 % 1013,2 hPa 0,0 l/m 0,0 km/h W 13,2 C 23,0 C 0,0 km/h
04.07.2011 09:00 24,2 C 49 % 1013,2 hPa 0,0 l/m 0,0 km/h W 12,8 C 24,2 C 0,0 km/h
04.07.2011 10:00 25,6 C 45 % 1013,1 hPa 0,0 l/m 0,0 km/h W-NW 12,8 C 25,6 C 0,0 km/h
04.07.2011 11:00 27,5 C 41 % 1012,7 hPa 0,0 l/m 0,0 km/h NW 13,1 C 27,5 C 0,0 km/h
04.07.2011 12:00 25,7 C 45 % 1012,4 hPa 0,0 l/m 1,9 km/h NW 12,9 C 25,7 C 1,1 km/h
04.07.2011 13:00 26,8 C 46 % 1012,2 hPa 0,0 l/m 1,9 km/h NW 14,2 C 26,8 C 1,1 km/h
04.07.2011 14:00 27,9 C 38 % 1012,0 hPa 0,0 l/m 1,9 km/h NW 12,2 C 27,9 C 1,1 km/h
04.07.2011 15:00 29,7 C 36 % 1011,9 hPa 0,0 l/m 0,0 km/h SW 13,0 C 29,7 C 0,0 km/h
04.07.2011 16:00 32,0 C 32 % 1011,3 hPa 0,0 l/m 5,2 km/h N-NO 13,2 C 32,0 C 2,9 km/h
04.07.2011 17:00 35,8 C 26 % 1011,0 hPa 0,0 l/m 0,0 km/h W 13,3 C 35,8 C 0,0 km/h
04.07.2011 18:00 32,9 C 28 % 1010,8 hPa 0,0 l/m 1,3 km/h NW 11,9 C 32,9 C 0,7 km/h
04.07.2011 19:00 29,9 C 30 % 1011,2 hPa 0,0 l/m 0,0 km/h W 10,4 C 29,9 C 0,0 km/h
04.07.2011 20:00 23,8 C 42 % 1011,2 hPa 0,0 l/m 0,0 km/h N-NW 10,1 C 23,8 C 0,0 km/h
04.07.2011 21:00 19,9 C 60 % 1011,5 hPa 0,0 l/m 0,0 km/h O-NO 11,9 C 19,9 C 0,0 km/h
04.07.2011 22:00 17,3 C 66 % 1012,0 hPa 0,0 l/m 0,0 km/h SO 10,9 C 17,3 C 0,0 km/h
04.07.2011 23:00 16,2 C 72 % 1012,4 hPa 0,0 l/m 5,8 km/h SO 11,1 C 16,2 C 3,2 km/h
05.07.2011 00:00 15,1 C 75 % 1012,3 hPa 0,0 l/m 0,0 km/h O 10,7 C 15,1 C 0,0 km/h
05.07.2011 01:00 14,1 C 79 % 1012,4 hPa 0,0 l/m 0,0 km/h O 10,5 C 14,1 C 0,0 km/h
05.07.2011 02:00 12,9 C 81 % 1012,5 hPa 0,0 l/m 0,0 km/h O-NO 9,7 C 12,9 C 0,0 km/h
05.07.2011 03:00 12,5 C 83 % 1012,4 hPa 0,0 l/m 0,0 km/h NO 9,7 C 12,5 C 0,0 km/h
05.07.2011 04:00 11,6 C 84 % 1012,6 hPa 0,0 l/m 0,0 km/h NO 9,0 C 11,6 C 0,0 km/h
05.07.2011 05:00 11,0 C 85 % 1013,1 hPa 0,0 l/m 0,0 km/h O 8,6 C 11,0 C 0,0 km/h
05.07.2011 06:00 11,3 C 86 % 1013,2 hPa 0,0 l/m 0,0 km/h O-SO 9,0 C 11,3 C 0,0 km/h
05.07.2011 07:00 14,1 C 85 % 1013,2 hPa 0,0 l/m 0,0 km/h N-NO 11,6 C 14,1 C 0,0 km/h
05.07.2011 08:00 24,8 C 56 % 1013,5 hPa 0,0 l/m 0,0 km/h NO 15,4 C 24,8 C 0,0 km/h
05.07.2011 09:00 28,1 C 45 % 1013,3 hPa 0,0 l/m 0,0 km/h W-SW 15,0 C 28,1 C 0,0 km/h
05.07.2011 10:00 28,7 C 43 % 1013,2 hPa 0,0 l/m 0,0 km/h SO 14,9 C 28,7 C 0,0 km/h
05.07.2011 11:00 30,1 C 42 % 1012,9 hPa 0,0 l/m 5,8 km/h W 15,7 C 30,1 C 3,2 km/h
05.07.2011 12:00 29,1 C 39 % 1012,4 hPa 0,0 l/m 0,0 km/h N 13,7 C 29,1 C 0,0 km/h
05.07.2011 13:00 29,7 C 37 % 1011,9 hPa 0,0 l/m 0,0 km/h SW 13,4 C 29,7 C 0,0 km/h
05.07.2011 14:00 30,2 C 34 % 1011,4 hPa 0,0 l/m 14,3 km/h N-NO 12,6 C 29,6 C 7,9 km/h
05.07.2011 15:00 32,8 C 32 % 1011,0 hPa 0,0 l/m 14,9 km/h W-NW 13,9 C 32,8 C 8,3 km/h
05.07.2011 16:00 34,8 C 29 % 1010,6 hPa 0,0 l/m 1,9 km/h SW 14,1 C 34,8 C 1,1 km/h
05.07.2011 17:00 35,6 C 28 % 1010,2 hPa 0,0 l/m 6,5 km/h W-SW 14,2 C 35,6 C 3,6 km/h
05.07.2011 18:00 35,1 C 29 % 1009,9 hPa 0,0 l/m 0,0 km/h W-SW 14,4 C 35,1 C 0,0 km/h
05.07.2011 19:00 32,4 C 32 % 1009,4 hPa 0,0 l/m 0,0 km/h N-NO 13,6 C 32,4 C 0,0 km/h
05.07.2011 20:00 26,4 C 48 % 1009,6 hPa 0,0 l/m 0,0 km/h O-NO 14,5 C 26,4 C 0,0 km/h
05.07.2011 21:00 21,6 C 59 % 1009,4 hPa 0,0 l/m 0,0 km/h SO 13,2 C 21,6 C 0,0 km/h
05.07.2011 22:00 18,9 C 67 % 1009,5 hPa 0,0 l/m 0,0 km/h NO 12,6 C 18,9 C 0,0 km/h
05.07.2011 23:00 17,9 C 72 % 1009,6 hPa 0,0 l/m 0,0 km/h SO 12,8 C 17,9 C 0,0 km/h
06.07.2011 00:00 16,3 C 74 % 1009,7 hPa 0,0 l/m 0,0 km/h O-NO 11,7 C 16,3 C 0,0 km/h
06.07.2011 01:00 15,5 C 78 % 1009,6 hPa 0,0 l/m 0,0 km/h N-NO 11,7 C 15,5 C 0,0 km/h
06.07.2011 02:00 15,3 C 78 % 1009,6 hPa 0,0 l/m 1,3 km/h S-SO 11,5 C 15,3 C 0,7 km/h
06.07.2011 03:00 14,9 C 79 % 1009,1 hPa 0,0 l/m 0,0 km/h NO 11,3 C 14,9 C 0,0 km/h
06.07.2011 04:00 14,4 C 79 % 1008,6 hPa 0,0 l/m 0,0 km/h O-NO 10,8 C 14,4 C 0,0 km/h
06.07.2011 05:00 13,4 C 81 % 1009,1 hPa 0,0 l/m 0,0 km/h O-NO 10,2 C 13,4 C 0,0 km/h
06.07.2011 06:00 13,9 C 82 % 1009,4 hPa 0,0 l/m 0,0 km/h S-SO 10,9 C 13,9 C 0,0 km/h
06.07.2011 07:00 16,7 C 77 % 1009,6 hPa 0,0 l/m 5,2 km/h SO 12,6 C 16,7 C 2,9 km/h
06.07.2011 08:00 29,1 C 48 % 1009,8 hPa 0,0 l/m 0,0 km/h NW 16,9 C 29,1 C 0,0 km/h
06.07.2011 09:00 26,5 C 43 % 1009,7 hPa 0,0 l/m 3,9 km/h S-SW 12,9 C 26,5 C 2,2 km/h
06.07.2011 10:00 27,1 C 45 % 1009,5 hPa 0,0 l/m 7,1 km/h W-SW 14,1 C 27,0 C 4,0 km/h
06.07.2011 11:00 31,1 C 35 % 1009,0 hPa 0,0 l/m 0,0 km/h SW 13,8 C 31,1 C 0,0 km/h
06.07.2011 12:00 28,8 C 40 % 1009,3 hPa 0,0 l/m 24,0 km/h W 13,8 C 27,4 C 13,3 km/h
06.07.2011 13:00 26,4 C 42 % 1009,7 hPa 0,0 l/m 22,0 km/h W 12,4 C 24,3 C 12,2 km/h
06.07.2011 14:00 26,9 C 43 % 1009,7 hPa 0,0 l/m 23,3 km/h W-SW 13,2 C 24,9 C 13,0 km/h
06.07.2011 15:00 28,8 C 40 % 1009,7 hPa 0,0 l/m 18,1 km/h SW 13,8 C 27,7 C 10,1 km/h
06.07.2011 16:00 31,7 C 34 % 1009,9 hPa 0,0 l/m 13,0 km/h W 13,9 C 31,5 C 7,2 km/h
06.07.2011 17:00 29,2 C 40 % 1010,0 hPa 0,0 l/m 9,1 km/h W-SW 14,2 C 28,9 C 5,0 km/h
06.07.2011 18:00 25,0 C 49 % 1009,7 hPa 0,0 l/m 18,1 km/h W 13,5 C 22,9 C 10,1 km/h
06.07.2011 19:00 23,7 C 53 % 1009,6 hPa 0,0 l/m 0,0 km/h N-NO 13,5 C 23,7 C 0,0 km/h
06.07.2011 20:00 23,4 C 56 % 1009,8 hPa 0,0 l/m 0,0 km/h NO 14,1 C 23,4 C 0,0 km/h
06.07.2011 21:00 20,6 C 66 % 1010,0 hPa 0,0 l/m 0,0 km/h O-NO 14,0 C 20,6 C 0,0 km/h
06.07.2011 22:00 19,3 C 72 % 1010,0 hPa 0,0 l/m 0,0 km/h NO 14,1 C 19,3 C 0,0 km/h
06.07.2011 23:00 18,3 C 75 % 1010,0 hPa 0,0 l/m 0,0 km/h SO 13,8 C 18,3 C 0,0 km/h
07.07.2011 00:00 17,4 C 77 % 1009,9 hPa 0,0 l/m 0,0 km/h SO 13,3 C 17,4 C 0,0 km/h
07.07.2011 01:00 17,1 C 78 % 1009,7 hPa 0,0 l/m 0,0 km/h O-NO 13,2 C 17,1 C 0,0 km/h
07.07.2011 02:00 17,1 C 78 % 1009,8 hPa 0,0 l/m 0,0 km/h S-SO 13,2 C 17,1 C 0,0 km/h
07.07.2011 03:00 17,0 C 78 % 1010,0 hPa 0,0 l/m 0,0 km/h SO 13,1 C 17,0 C 0,0 km/h
07.07.2011 04:00 16,8 C 80 % 1009,8 hPa 0,0 l/m 0,0 km/h O 13,3 C 16,8 C 0,0 km/h
07.07.2011 05:00 16,4 C 81 % 1009,9 hPa 0,0 l/m 0,0 km/h NO 13,1 C 16,4 C 0,0 km/h
07.07.2011 06:00 16,5 C 82 % 1009,6 hPa 0,0 l/m 0,0 km/h O-SO 13,4 C 16,5 C 0,0 km/h
07.07.2011 07:00 17,9 C 80 % 1010,0 hPa 0,0 l/m 0,0 km/h NO 14,4 C 17,9 C 0,0 km/h
07.07.2011 08:00 21,3 C 68 % 1010,3 hPa 0,0 l/m 0,0 km/h O 15,1 C 21,3 C 0,0 km/h
07.07.2011 09:00 26,3 C 58 % 1010,2 hPa 0,0 l/m 0,0 km/h W 17,4 C 26,3 C 0,0 km/h
07.07.2011 10:00 27,0 C 48 % 1010,0 hPa 0,0 l/m 1,9 km/h N-NW 15,0 C 27,0 C 1,1 km/h
07.07.2011 11:00 29,8 C 42 % 1009,3 hPa 0,0 l/m 1,3 km/h W 15,5 C 29,8 C 0,7 km/h
07.07.2011 12:00 26,6 C 44 % 1008,9 hPa 0,0 l/m 0,0 km/h W-NW 13,3 C 26,6 C 0,0 km/h
07.07.2011 13:00 26,3 C 44 % 1008,4 hPa 0,0 l/m 7,1 km/h N-NW 13,1 C 26,2 C 4,0 km/h
07.07.2011 14:00 25,1 C 45 % 1008,3 hPa 0,0 l/m 0,0 km/h N-NO 12,3 C 25,1 C 0,0 km/h
07.07.2011 15:00 24,8 C 49 % 1008,3 hPa 0,0 l/m 0,0 km/h W 13,3 C 24,8 C 0,0 km/h
07.07.2011 16:00 18,0 C 72 % 1010,8 hPa 1,4 l/m 1,3 km/h S-SO 12,9 C 18,0 C 0,7 km/h
07.07.2011 17:00 20,1 C 75 % 1009,4 hPa 1,4 l/m 0,0 km/h NO 15,5 C 20,1 C 0,0 km/h
07.07.2011 18:00 18,4 C 79 % 1009,0 hPa 0,7 l/m 0,0 km/h O-NO 14,7 C 18,4 C 0,0 km/h
07.07.2011 19:00 17,9 C 80 % 1008,9 hPa 0,0 l/m 0,0 km/h O 14,4 C 17,9 C 0,0 km/h
07.07.2011 20:00 17,8 C 81 % 1009,0 hPa 0,0 l/m 0,0 km/h W 14,5 C 17,8 C 0,0 km/h
07.07.2011 21:00 16,6 C 84 % 1009,2 hPa 0,7 l/m 0,0 km/h O-SO 13,9 C 16,6 C 0,0 km/h
07.07.2011 22:00 16,1 C 85 % 1008,9 hPa 1,1 l/m 0,0 km/h W 13,6 C 16,1 C 0,0 km/h
07.07.2011 23:00 15,6 C 85 % 1009,3 hPa 0,4 l/m 0,0 km/h W-NW 13,1 C 15,6 C 0,0 km/h
08.07.2011 00:00 15,3 C 85 % 1009,9 hPa 1,4 l/m 7,8 km/h SW 12,8 C 14,5 C 4,3 km/h
08.07.2011 01:00 15,3 C 84 % 1010,8 hPa 1,1 l/m 5,2 km/h S 12,6 C 15,3 C 2,9 km/h
08.07.2011 02:00 14,9 C 84 % 1012,0 hPa 1,4 l/m 1,9 km/h S 12,2 C 14,9 C 1,1 km/h
08.07.2011 03:00 14,1 C 86 % 1010,6 hPa 0,4 l/m 0,0 km/h S-SO 11,8 C 14,1 C 0,0 km/h
08.07.2011 04:00 13,1 C 86 % 1012,0 hPa 0,0 l/m 0,0 km/h S-SO 10,8 C 13,1 C 0,0 km/h
08.07.2011 05:00 12,4 C 86 % 1012,3 hPa 0,0 l/m 0,0 km/h NO 10,1 C 12,4 C 0,0 km/h
08.07.2011 06:00 12,3 C 86 % 1012,7 hPa 0,0 l/m 0,0 km/h SO 10,0 C 12,3 C 0,0 km/h
08.07.2011 07:00 15,3 C 86 % 1012,8 hPa 0,0 l/m 0,0 km/h S-SO 13,0 C 15,3 C 0,0 km/h
08.07.2011 08:00 19,8 C 68 % 1013,2 hPa 0,0 l/m 20,7 km/h S-SW 13,7 C 15,8 C 11,5 km/h
08.07.2011 09:00 21,5 C 62 % 1013,4 hPa 0,0 l/m 7,1 km/h S-SW 13,9 C 21,2 C 4,0 km/h
08.07.2011 10:00 23,0 C 55 % 1013,2 hPa 0,0 l/m 21,4 km/h S-SW 13,5 C 19,9 C 11,9 km/h
08.07.2011 11:00 24,5 C 52 % 1013,3 hPa 0,0 l/m 18,8 km/h W-SW 14,0 C 22,2 C 10,4 km/h
08.07.2011 12:00 23,1 C 53 % 1013,2 hPa 0,0 l/m 9,7 km/h W 13,0 C 22,1 C 5,4 km/h
08.07.2011 13:00 24,8 C 48 % 1012,6 hPa 0,0 l/m 5,2 km/h W-SW 13,0 C 24,8 C 2,9 km/h
08.07.2011 14:00 25,1 C 46 % 1012,3 hPa 0,0 l/m 7,1 km/h W 12,7 C 24,9 C 4,0 km/h
08.07.2011 15:00 25,9 C 45 % 1011,7 hPa 0,0 l/m 0,0 km/h NO 13,0 C 25,9 C 0,0 km/h
08.07.2011 16:00 29,9 C 38 % 1011,6 hPa 0,0 l/m 0,0 km/h W-NW 14,0 C 29,9 C 0,0 km/h
08.07.2011 17:00 25,3 C 46 % 1011,9 hPa 0,0 l/m 1,3 km/h W-NW 12,8 C 25,3 C 0,7 km/h
08.07.2011 18:00 23,9 C 52 % 1011,7 hPa 0,0 l/m 0,0 km/h W-NW 13,4 C 23,9 C 0,0 km/h
08.07.2011 19:00 25,7 C 46 % 1011,9 hPa 0,0 l/m 0,0 km/h W-NW 13,2 C 25,7 C 0,0 km/h
08.07.2011 20:00 22,0 C 59 % 1012,0 hPa 0,0 l/m 0,0 km/h O-NO 13,6 C 22,0 C 0,0 km/h
08.07.2011 21:00 18,6 C 71 % 1012,3 hPa 0,0 l/m 0,0 km/h NO 13,2 C 18,6 C 0,0 km/h
08.07.2011 22:00 16,6 C 77 % 1013,1 hPa 0,0 l/m 0,0 km/h O-NO 12,5 C 16,6 C 0,0 km/h
08.07.2011 23:00 15,5 C 80 % 1013,0 hPa 0,0 l/m 0,0 km/h S-SO 12,1 C 15,5 C 0,0 km/h
09.07.2011 00:00 14,9 C 83 % 1013,2 hPa 0,0 l/m 0,0 km/h O 12,0 C 14,9 C 0,0 km/h
09.07.2011 01:00 14,4 C 84 % 1013,2 hPa 0,0 l/m 0,0 km/h SO 11,7 C 14,4 C 0,0 km/h
09.07.2011 02:00 14,1 C 85 % 1013,1 hPa 0,0 l/m 0,0 km/h S-SO 11,6 C 14,1 C 0,0 km/h
09.07.2011 03:00 13,8 C 85 % 1013,1 hPa 0,0 l/m 0,0 km/h O-SO 11,3 C 13,8 C 0,0 km/h
09.07.2011 04:00 13,6 C 85 % 1012,9 hPa 0,0 l/m 0,0 km/h O-SO 11,1 C 13,6 C 0,0 km/h
09.07.2011 05:00 13,4 C 85 % 1013,3 hPa 0,0 l/m 0,0 km/h SO 10,9 C 13,4 C 0,0 km/h
09.07.2011 06:00 13,5 C 85 % 1013,8 hPa 0,0 l/m 0,0 km/h NO 11,0 C 13,5 C 0,0 km/h
09.07.2011 07:00 15,9 C 84 % 1013,8 hPa 0,0 l/m 0,0 km/h S-SO 13,2 C 15,9 C 0,0 km/h
09.07.2011 08:00 26,7 C 56 % 1014,0 hPa 0,0 l/m 0,0 km/h W 17,2 C 26,7 C 0,0 km/h
09.07.2011 09:00 30,5 C 48 % 1014,3 hPa 0,0 l/m 0,0 km/h W 18,2 C 30,5 C 0,0 km/h
09.07.2011 10:00 28,6 C 46 % 1014,5 hPa 0,0 l/m 20,1 km/h S-SW 15,8 C 27,3 C 11,2 km/h
09.07.2011 11:00 28,9 C 44 % 1014,7 hPa 0,0 l/m 24,6 km/h S 15,4 C 27,5 C 13,7 km/h
09.07.2011 12:00 27,9 C 45 % 1014,8 hPa 0,0 l/m 27,2 km/h SW 14,8 C 26,0 C 15,1 km/h
09.07.2011 13:00 28,9 C 46 % 1014,7 hPa 0,0 l/m 7,1 km/h W-SW 16,1 C 28,8 C 4,0 km/h
09.07.2011 14:00 29,6 C 43 % 1014,9 hPa 0,0 l/m 23,3 km/h W-SW 15,7 C 28,5 C 13,0 km/h
09.07.2011 15:00 32,0 C 37 % 1014,7 hPa 0,0 l/m 13,6 km/h N 15,5 C 31,8 C 7,6 km/h
09.07.2011 16:00 30,0 C 40 % 1015,3 hPa 0,0 l/m 15,6 km/h N 14,9 C 29,3 C 8,6 km/h
09.07.2011 17:00 27,3 C 46 % 1015,9 hPa 0,0 l/m 0,0 km/h N-NO 14,6 C 27,3 C 0,0 km/h
09.07.2011 18:00 25,5 C 51 % 1016,2 hPa 0,0 l/m 0,0 km/h N-NO 14,6 C 25,5 C 0,0 km/h
09.07.2011 19:00 24,4 C 55 % 1016,3 hPa 0,0 l/m 0,0 km/h N-NO 14,8 C 24,4 C 0,0 km/h
09.07.2011 20:00 21,5 C 63 % 1016,5 hPa 0,0 l/m 0,0 km/h SO 14,2 C 21,5 C 0,0 km/h
09.07.2011 21:00 19,6 C 73 % 1016,0 hPa 0,0 l/m 0,0 km/h NO 14,6 C 19,6 C 0,0 km/h
09.07.2011 22:00 17,9 C 78 % 1017,1 hPa 0,0 l/m 0,0 km/h SO 14,0 C 17,9 C 0,0 km/h
09.07.2011 23:00 16,1 C 83 % 1017,9 hPa 0,0 l/m 0,0 km/h O-NO 13,2 C 16,1 C 0,0 km/h
10.07.2011 00:00 16,4 C 83 % 1017,8 hPa 0,0 l/m 0,0 km/h O-NO 13,5 C 16,4 C 0,0 km/h
10.07.2011 01:00 16,6 C 83 % 1017,2 hPa 0,0 l/m 0,0 km/h S-SO 13,7 C 16,6 C 0,0 km/h
10.07.2011 02:00 16,3 C 84 % 1017,8 hPa 0,0 l/m 0,0 km/h SO 13,6 C 16,3 C 0,0 km/h
10.07.2011 03:00 14,8 C 85 % 1017,2 hPa 0,0 l/m 0,0 km/h O-SO 12,3 C 14,8 C 0,0 km/h
10.07.2011 04:00 13,9 C 86 % 1016,8 hPa 0,0 l/m 0,0 km/h NO 11,6 C 13,9 C 0,0 km/h
10.07.2011 05:00 13,8 C 85 % 1016,7 hPa 0,0 l/m 0,0 km/h O-NO 11,3 C 13,8 C 0,0 km/h
10.07.2011 06:00 13,6 C 85 % 1016,5 hPa 0,0 l/m 0,0 km/h NO 11,1 C 13,6 C 0,0 km/h
10.07.2011 07:00 15,8 C 85 % 1016,5 hPa 0,0 l/m 0,0 km/h S-SO 13,3 C 15,8 C 0,0 km/h
10.07.2011 08:00 26,4 C 59 % 1016,6 hPa 0,0 l/m 0,0 km/h N-NO 17,7 C 26,4 C 0,0 km/h
10.07.2011 09:00 25,6 C 57 % 1015,9 hPa 0,0 l/m 0,0 km/h NW 16,4 C 25,6 C 0,0 km/h
10.07.2011 10:00 22,9 C 64 % 1015,6 hPa 0,0 l/m 1,9 km/h N-NW 15,7 C 22,9 C 1,1 km/h
10.07.2011 11:00 20,8 C 75 % 1015,2 hPa 0,0 l/m 0,0 km/h W 16,2 C 20,8 C 0,0 km/h
10.07.2011 12:00 20,8 C 76 % 1015,8 hPa 0,7 l/m 0,0 km/h W-SW 16,4 C 20,8 C 0,0 km/h
10.07.2011 13:00 19,6 C 80 % 1017,2 hPa 0,0 l/m 9,1 km/h S-SW 16,1 C 18,5 C 5,0 km/h
10.07.2011 14:00 19,4 C 81 % 1016,9 hPa 0,4 l/m 5,2 km/h SO 16,1 C 19,4 C 2,9 km/h
10.07.2011 15:00 19,3 C 84 % 1015,9 hPa 0,7 l/m 0,0 km/h N 16,5 C 19,3 C 0,0 km/h
10.07.2011 16:00 28,8 C 53 % 1015,0 hPa 0,0 l/m 0,0 km/h W 18,2 C 28,8 C 0,0 km/h
10.07.2011 17:00 27,7 C 54 % 1015,1 hPa 0,0 l/m 17,5 km/h W 17,5 C 26,4 C 9,7 km/h
10.07.2011 18:00 26,8 C 56 % 1015,2 hPa 0,0 l/m 2,6 km/h W-SW 17,3 C 26,8 C 1,4 km/h
10.07.2011 19:00 23,3 C 66 % 1015,5 hPa 0,0 l/m 0,0 km/h S 16,6 C 23,3 C 0,0 km/h
10.07.2011 20:00 21,5 C 71 % 1015,5 hPa 0,0 l/m 0,0 km/h N-NO 16,0 C 21,5 C 0,0 km/h
10.07.2011 21:00 19,2 C 79 % 1015,8 hPa 0,0 l/m 0,0 km/h N-NO 15,5 C 19,2 C 0,0 km/h
10.07.2011 22:00 18,5 C 82 % 1016,3 hPa 0,0 l/m 0,0 km/h N-NO 15,4 C 18,5 C 0,0 km/h
10.07.2011 23:00 18,9 C 78 % 1017,0 hPa 0,0 l/m 7,1 km/h N-NW 15,0 C 18,6 C 4,0 km/h
Min-Datum _ 04.07.11 04.07.11 07.07.11 - 04.07.11 - 04.07.11 04.07.11 04.07.11
_ Min-Zeit 05:30 17:30 14:30 - 00:30 - 05:30 05:30 00:30
Minimum _ 7,7 C 26 % 1008,3 hPa - 0,0 km/h - 5,3 C 7,7 C 0,0 km/h
Max-Datum _ 04.07.11 04.07.11 09.07.11 07.07.11 09.07.11 - 10.07.11 04.07.11 09.07.11
_ Max-Zeit 17:30 06:30 23:30 16:30 12:30 - 16:30 17:30 12:30
Maximum _ 35,8 C 86 % 1017,9 hPa 1,4 l/m 27,2 km/h
SW
- 18,2 C 35,8 C 15,1 km/h
SW
Durchschnitt _ 21,2 C 64 % 1012,3 hPa #11,7 l/m 3,0 km/h W 13,1 C 21,0 C 1,7 km/h
www.sexauwetter.de